createdAt,value
2023-01-01T00:01:03.307Z,-28.3
2023-01-01T00:03:05.088Z,-28.4
2023-01-01T00:05:06.353Z,-28.1
2023-01-01T00:07:08.027Z,-28.2
2023-01-01T00:09:09.117Z,-28.2
2023-01-01T00:13:11.701Z,-28.1
2023-01-01T00:15:12.712Z,-28
2023-01-01T00:17:13.995Z,-28.3
2023-01-01T00:19:15.164Z,-28
2023-01-01T00:21:16.149Z,-28.3
2023-01-01T00:23:17.218Z,-28.3
2023-01-01T00:29:21.128Z,-28
2023-01-01T00:31:22.171Z,-28
2023-01-01T00:33:23.783Z,-28.2
2023-01-01T00:35:24.757Z,-28.5
2023-01-01T00:37:25.767Z,-28.3
2023-01-01T00:39:26.831Z,-28.3
2023-01-01T00:43:29.531Z,-28.3
2023-01-01T00:45:30.477Z,-28
2023-01-01T00:47:31.969Z,-28.4
2023-01-01T00:49:33.109Z,-28.3
2023-01-01T00:55:37.261Z,-28.2
2023-01-01T00:57:38.444Z,-28.3
2023-01-01T00:59:39.530Z,-28.2
2023-01-01T01:01:40.650Z,-28.2
2023-01-01T01:03:42.163Z,-28
2023-01-01T01:05:43.293Z,-28.2
2023-01-01T01:09:46.496Z,-28.2
2023-01-01T01:11:47.547Z,-28.3
2023-01-01T01:13:48.481Z,-28.3
2023-01-01T01:15:54.597Z,-27.9
2023-01-01T01:17:50.631Z,-28.2
2023-01-01T01:19:52.103Z,-28.4
2023-01-01T01:21:53.840Z,-28
2023-01-01T01:23:55.495Z,-28.3
2023-01-01T01:26:40.767Z,-28.2
2023-01-01T01:28:47.202Z,-28.3
2023-01-01T01:30:43.112Z,-28
2023-01-01T01:32:44.792Z,-28
2023-01-01T01:34:46.297Z,-28.4
2023-01-01T01:36:47.202Z,-28.3
2023-01-01T01:38:48.766Z,-28.6
2023-01-01T01:40:49.844Z,-28.2
2023-01-01T01:42:50.724Z,-28.3
2023-01-01T01:44:51.874Z,-28.4
2023-01-01T01:46:53.192Z,-27.9
2023-01-01T01:48:55.019Z,-28.1
2023-01-01T01:50:56.088Z,-28.4
2023-01-01T01:52:57.384Z,-28.2
2023-01-01T01:54:58.989Z,-28.3
2023-01-01T01:57:00.826Z,-28.3
2023-01-01T01:59:02.123Z,-28.3
2023-01-01T02:05:06.192Z,-28.3
2023-01-01T02:07:07.236Z,-28.3
2023-01-01T02:09:08.523Z,-28.4
2023-01-01T02:11:09.989Z,-28
2023-01-01T02:13:11.396Z,-28
2023-01-01T02:15:13.261Z,-28
2023-01-01T02:19:15.839Z,-28.4
2023-01-01T02:21:17.482Z,-28.2
2023-01-01T02:23:19.096Z,-28.7
2023-01-01T02:25:20.410Z,-28.4
2023-01-01T02:29:23.903Z,-28.2
2023-01-01T02:31:25.754Z,-28.4
2023-01-01T02:35:27.846Z,-28.2
2023-01-01T02:37:29.554Z,-28.1
2023-01-01T02:39:31.228Z,-28.3
2023-01-01T02:41:32.297Z,-28.2
2023-01-01T02:45:34.971Z,-28.4
2023-01-01T02:47:36.305Z,-28.2
2023-01-01T02:49:37.397Z,-28
2023-01-01T02:51:38.875Z,-28
2023-01-01T02:53:40.041Z,-28.4
2023-01-01T02:55:40.980Z,-28.2
2023-01-01T02:57:42.193Z,-28.6
2023-01-01T02:59:43.892Z,-28.5
2023-01-01T03:01:45.122Z,-28.4
2023-01-01T03:03:46.340Z,-28
2023-01-01T03:05:47.635Z,-28
2023-01-01T03:07:48.937Z,-28.4
2023-01-01T03:09:50.102Z,-28.2
2023-01-01T03:11:51.738Z,-27.8
2023-01-01T03:13:52.970Z,-28
2023-01-01T03:15:53.999Z,-28.3
2023-01-01T03:17:54.998Z,-28.3
2023-01-01T03:19:56.634Z,-28.2
2023-01-01T03:23:59.161Z,-28.1
2023-01-01T03:26:00.182Z,-28.4
2023-01-01T03:30:03.551Z,-28.1
2023-01-01T03:32:05.144Z,-28.1
2023-01-01T03:34:06.721Z,-28.3
2023-01-01T03:36:07.648Z,-28.3
2023-01-01T03:38:08.644Z,-28
2023-01-01T03:40:09.731Z,-28.2
2023-01-01T03:46:13.679Z,-28.3
2023-01-01T03:48:15.218Z,-28.4
2023-01-01T03:50:16.190Z,-28.3
2023-01-01T03:52:17.939Z,-28.3
2023-01-01T03:54:19.515Z,-28.2
2023-01-01T03:56:21.296Z,-28.2
2023-01-01T03:58:22.283Z,-28.2
2023-01-01T04:00:24.067Z,-28.2
2023-01-01T04:02:25.253Z,-28
2023-01-01T04:04:27.113Z,-28.2
2023-01-01T04:06:28.852Z,-28.2
2023-01-01T04:08:30.537Z,-28.3
2023-01-01T04:12:32.752Z,-28.1
2023-01-01T04:16:35.659Z,-28
2023-01-01T04:18:36.538Z,-28.2
2023-01-01T04:20:37.834Z,-27.9
2023-01-01T04:22:39.318Z,-28.3
2023-01-01T04:26:41.440Z,-28.1
2023-01-01T04:28:43.232Z,-28
2023-01-01T04:30:44.583Z,-28.2
2023-01-01T04:32:46.417Z,-28.3
2023-01-01T04:36:48.767Z,-28.3
2023-01-01T04:38:49.861Z,-28.3
2023-01-01T04:40:51.144Z,-28.2
2023-01-01T04:42:53.004Z,-28.1
2023-01-01T04:44:54.558Z,-28.4
2023-01-01T04:47:00.059Z,-28.2
2023-01-01T04:48:58.105Z,-28.3
2023-01-01T04:51:00.016Z,-28.4
2023-01-01T04:55:03.466Z,-28.4
2023-01-01T04:57:05.028Z,-28.4
2023-01-01T04:59:06.164Z,-28.3
2023-01-01T05:01:07.915Z,-28.2
2023-01-01T05:03:08.805Z,-28.5
2023-01-01T05:05:10.634Z,-28.3
2023-01-01T05:07:12.451Z,-28.2
2023-01-01T05:09:13.556Z,-28.2
2023-01-01T05:11:14.510Z,-28
2023-01-01T05:13:15.623Z,-28
2023-01-01T05:15:16.995Z,-28.1
2023-01-01T05:17:18.497Z,-28.3
2023-01-01T05:19:19.534Z,-28.2
2023-01-01T05:21:21.038Z,-28.4
2023-01-01T05:23:22.343Z,-28.4
2023-01-01T05:25:23.776Z,-28.2
2023-01-01T05:27:24.761Z,-28
2023-01-01T05:29:25.834Z,-28.3
2023-01-01T05:31:27.727Z,-28.4
2023-01-01T05:33:29.384Z,-28.5
2023-01-01T05:35:30.871Z,-28.3
2023-01-01T05:37:32.145Z,-27.9
2023-01-01T05:41:35.151Z,-28
2023-01-01T05:43:36.734Z,-28.2
2023-01-01T05:45:37.893Z,-28.3
2023-01-01T05:47:39.445Z,-28.2
2023-01-01T05:49:41.118Z,-27.9
2023-01-01T05:51:42.373Z,-28.3
2023-01-01T05:53:44.379Z,-28.1
2023-01-01T05:55:45.216Z,-28.2
2023-01-01T05:57:46.497Z,-28.3
2023-01-01T05:59:48.182Z,-28.3
2023-01-01T06:01:49.980Z,-28.3
2023-01-01T06:03:51.320Z,-28.3
2023-01-01T06:07:54.605Z,-27.9
2023-01-01T06:09:55.973Z,-28.4
2023-01-01T06:11:56.981Z,-28.5
2023-01-01T06:13:58.252Z,-28.3
2023-01-01T06:15:59.223Z,-28.3
2023-01-01T06:18:01.129Z,-28.2
2023-01-01T06:20:03.019Z,-28.1
2023-01-01T06:22:04.679Z,-28.5
2023-01-01T06:24:05.921Z,-28
2023-01-01T06:26:07.319Z,-28.3
2023-01-01T06:30:10.177Z,-28.3
2023-01-01T06:32:11.233Z,-28.5
2023-01-01T06:34:13.149Z,-28
2023-01-01T06:36:14.188Z,-28.5
2023-01-01T06:38:15.547Z,-28.2
2023-01-01T06:40:16.922Z,-28.1
2023-01-01T06:42:17.932Z,-28.3
2023-01-01T06:44:19.382Z,-28.2
2023-01-01T06:46:21.021Z,-28.4
2023-01-01T06:52:25.332Z,-28.2
2023-01-01T06:54:26.740Z,-28.2
2023-01-01T06:56:28.219Z,-28.3
2023-01-01T06:58:29.292Z,-28.3
2023-01-01T07:00:31.058Z,-27.9
2023-01-01T07:02:32.304Z,-28.3
2023-01-01T07:06:34.135Z,-28.3
2023-01-01T07:08:35.217Z,-28
2023-01-01T07:10:36.829Z,-28.3
2023-01-01T07:12:38.795Z,-28.2
2023-01-01T07:18:42.502Z,-28.4
2023-01-01T07:24:46.950Z,-28.3
2023-01-01T07:26:48.268Z,-28
2023-01-01T07:28:49.902Z,-28.5
2023-01-01T07:30:50.908Z,-28
2023-01-01T07:32:52.323Z,-28.2
2023-01-01T07:34:53.564Z,-28
2023-01-01T07:38:56.531Z,-28.1
2023-01-01T07:40:58.200Z,-28.2
2023-01-01T07:42:59.296Z,-28
2023-01-01T07:45:00.623Z,-27.9
2023-01-01T07:51:04.532Z,-28.6
2023-01-01T07:53:05.688Z,-28.2
2023-01-01T07:55:06.997Z,-28.1
2023-01-01T07:57:08.149Z,-27.8
2023-01-01T07:59:09.871Z,-28
2023-01-01T08:01:11.662Z,-28
2023-01-01T08:05:13.609Z,-28
2023-01-01T08:07:15.067Z,-28.3
2023-01-01T08:09:16.087Z,-28.5
2023-01-01T08:09:59.903Z,-28.3
2023-01-01T08:12:01.625Z,-28.2
2023-01-01T08:14:02.712Z,-28.2
2023-01-01T08:16:04.089Z,-27.9
2023-01-01T08:18:05.166Z,-28.2
2023-01-01T08:20:06.959Z,-27.8
2023-01-01T08:22:08.622Z,-27.4
2023-01-01T08:24:09.743Z,-25.6
2023-01-01T08:26:10.969Z,-27.6
2023-01-01T08:28:12.648Z,-26.4
2023-01-01T08:30:13.824Z,-23.7
2023-01-01T08:32:15.605Z,-24.1
2023-01-01T08:34:17.429Z,-14.4
2023-01-01T08:36:19.076Z,-15.2
2023-01-01T08:38:20.642Z,2.3
2023-01-01T08:40:21.629Z,-2.09
2023-01-01T08:44:24.879Z,29.2
2023-01-01T08:46:26.116Z,36.59
2023-01-01T08:48:30.839Z,60.1
2023-01-01T08:50:29.179Z,82.2
2023-01-01T08:52:30.757Z,81.8
2023-01-01T08:54:32.050Z,81.69
2023-01-01T08:58:35.575Z,81.19
2023-01-01T09:00:36.882Z,80.3
2023-01-01T09:02:38.742Z,79.8
2023-01-01T09:04:40.246Z,79.19
2023-01-01T09:06:41.513Z,79.1
2023-01-01T09:08:42.742Z,78.4
2023-01-01T09:10:43.688Z,78.1
2023-01-01T09:12:44.784Z,77.6
2023-01-01T09:14:46.618Z,76.6
2023-01-01T09:16:47.802Z,76.3
2023-01-01T09:20:50.493Z,75.3
2023-01-01T09:26:53.542Z,73.19
2023-01-01T09:28:55.305Z,73
2023-01-01T09:30:57.121Z,72.3
2023-01-01T09:32:58.463Z,71.69
2023-01-01T09:34:59.765Z,71.4
2023-01-01T09:37:00.857Z,70.4
2023-01-01T09:43:05.598Z,68.5
2023-01-01T09:45:06.910Z,67.5
2023-01-01T09:47:08.425Z,66.8
2023-01-01T09:49:10.201Z,65.69
2023-01-01T09:51:11.193Z,65
2023-01-01T09:53:12.674Z,64
2023-01-01T09:57:19.964Z,61.5
2023-01-01T09:59:17.025Z,60.7
2023-01-01T10:01:18.662Z,59.4
2023-01-01T10:03:20.531Z,57.7
2023-01-01T10:09:24.589Z,53.6
2023-01-01T10:11:26.593Z,52.4
2023-01-01T10:13:27.745Z,50.7
2023-01-01T10:15:29.172Z,48.8
2023-01-01T10:17:30.506Z,47.6
2023-01-01T10:19:32.227Z,45.9
2023-01-01T10:23:34.551Z,43.4
2023-01-01T10:25:35.559Z,40.5
2023-01-01T10:27:37.553Z,39.09
2023-01-01T10:29:39.439Z,36.5
2023-01-01T10:31:40.880Z,35.9
2023-01-01T10:33:42.463Z,34.2
2023-01-01T10:35:43.781Z,32.2
2023-01-01T10:37:45.019Z,31.5
2023-01-01T10:39:46.797Z,30.4
2023-01-01T10:41:47.890Z,28.6
2023-01-01T10:43:49.274Z,27.8
2023-01-01T10:45:50.540Z,26.5
2023-01-01T10:47:51.859Z,23.4
2023-01-01T10:49:52.926Z,24.2
2023-01-01T10:51:53.843Z,23.1
2023-01-01T10:55:57.907Z,21
2023-01-01T10:57:59.599Z,20.6
2023-01-01T11:00:01.919Z,19
2023-01-01T11:02:03.141Z,16
2023-01-01T11:08:07.374Z,14.1
2023-01-01T11:10:08.511Z,13.4
2023-01-01T11:12:24.766Z,12.2
2023-01-01T11:14:11.703Z,10.6
2023-01-01T11:16:13.276Z,11.7
2023-01-01T11:18:14.249Z,9.39
2023-01-01T11:22:16.348Z,7.8
2023-01-01T11:24:17.940Z,8.89
2023-01-01T11:26:19.359Z,8.1
2023-01-01T11:28:20.991Z,-28.6
2023-01-01T11:30:22.419Z,-28.4
2023-01-01T11:32:23.863Z,-28.6
2023-01-01T11:34:24.826Z,-28.5
2023-01-01T11:36:26.370Z,-28.8
2023-01-01T11:38:30.054Z,-28.7
2023-01-01T11:40:29.109Z,-28.6
2023-01-01T11:44:32.210Z,-28.5
2023-01-01T11:46:34.408Z,-28.6
2023-01-01T11:48:36.181Z,-28.2
2023-01-01T11:50:36.995Z,-28.7
2023-01-01T11:52:38.512Z,-28.5
2023-01-01T11:54:40.066Z,-28.3
2023-01-01T11:56:40.992Z,-28.4
2023-01-01T11:58:41.854Z,-28.4
2023-01-01T12:00:42.964Z,-28.6
2023-01-01T12:06:47.252Z,-28.4
2023-01-01T12:08:48.542Z,-28.6
2023-01-01T12:10:50.319Z,-28.3
2023-01-01T12:12:51.487Z,-28.7
2023-01-01T12:14:52.588Z,-28.4
2023-01-01T12:16:53.911Z,-28.2
2023-01-01T12:20:55.777Z,-28.5
2023-01-01T12:22:56.722Z,-28.5
2023-01-01T12:24:58.039Z,-28.4
2023-01-01T12:27:01.836Z,-28.6
2023-01-01T12:33:08.035Z,-28.6
2023-01-01T12:35:05.045Z,-28.4
2023-01-01T12:37:06.871Z,-28.4
2023-01-01T12:39:07.698Z,-28.5
2023-01-01T12:41:08.950Z,-28.6
2023-01-01T12:43:09.935Z,-28.5
2023-01-01T12:47:12.962Z,-28.5
2023-01-01T12:49:14.293Z,-28.6
2023-01-01T12:51:15.898Z,-28.5
2023-01-01T12:53:18.216Z,-28.3
2023-01-01T12:55:19.382Z,-28.6
2023-01-01T12:57:20.677Z,-28.3
2023-01-01T12:59:22.063Z,-28.3
2023-01-01T13:01:25.169Z,-28.9
2023-01-01T13:03:24.080Z,-28.5
2023-01-01T13:05:24.915Z,-28.5
2023-01-01T13:07:26.219Z,-28.7
2023-01-01T13:09:27.440Z,-28.3
2023-01-01T13:11:28.784Z,-28.6
2023-01-01T13:13:30.105Z,-28.7
2023-01-01T13:15:31.677Z,-28.3
2023-01-01T13:17:33.220Z,-28.6
2023-01-01T13:19:34.723Z,-28.5
2023-01-01T13:21:36.147Z,-28.4
2023-01-01T13:23:37.269Z,-28.6
2023-01-01T13:25:38.277Z,-28.3
2023-01-01T13:27:39.240Z,-28.7
2023-01-01T13:29:41.741Z,-28.4
2023-01-01T13:31:43.680Z,-28.7
2023-01-01T13:33:44.483Z,-28.4
2023-01-01T13:35:45.360Z,-28.7
2023-01-01T13:37:46.299Z,-28.3
2023-01-01T13:39:47.691Z,-28.3
2023-01-01T13:41:48.956Z,-28.6
2023-01-01T13:47:52.127Z,-28.5
2023-01-01T13:49:53.312Z,-28.5
2023-01-01T13:52:05.144Z,-28.5
2023-01-01T13:53:56.251Z,-28.4
2023-01-01T13:55:57.521Z,-28.5
2023-01-01T13:57:59.135Z,-28.4
2023-01-01T14:02:02.021Z,-28.6
2023-01-01T14:04:03.022Z,-28.4
2023-01-01T14:06:04.118Z,-28.6
2023-01-01T14:08:10.025Z,-28.4
2023-01-01T14:14:09.844Z,-28.3
2023-01-01T14:16:11.044Z,-28.8
2023-01-01T14:18:12.111Z,-28.4
2023-01-01T14:20:13.315Z,-28.5
2023-01-01T14:22:14.688Z,-28.4
2023-01-01T14:24:15.907Z,-28.5
2023-01-01T14:28:18.204Z,-28.6
2023-01-01T14:30:19.288Z,-28.6
2023-01-01T14:32:20.977Z,-28.5
2023-01-01T14:34:21.823Z,-28.5
2023-01-01T14:36:23.213Z,-28.5
2023-01-01T14:38:25.054Z,-28.6
2023-01-01T14:40:26.258Z,-28.5
2023-01-01T14:42:27.534Z,-28.4
2023-01-01T14:44:28.500Z,-28.5
2023-01-01T14:46:29.971Z,-28.6
2023-01-01T14:48:31.442Z,-28.6
2023-01-01T14:50:33.257Z,-28.6
2023-01-01T14:52:35.004Z,-28.3
2023-01-01T14:54:36.492Z,-28.6
2023-01-01T14:57:21.503Z,-28.5
2023-01-01T15:01:24.146Z,-28.7
2023-01-01T15:03:25.035Z,-28.5
2023-01-01T15:05:27.661Z,-28.1
2023-01-01T15:07:27.974Z,-28.4
2023-01-01T15:09:29.451Z,-28.3
2023-01-01T15:11:31.257Z,-28.4
2023-01-01T15:13:32.306Z,-28.2
2023-01-01T15:15:33.676Z,-28.7
2023-01-01T15:17:35.266Z,-28.5
2023-01-01T15:23:39.329Z,-28.6
2023-01-01T15:25:40.747Z,-28.4
2023-01-01T15:27:41.677Z,-28.5
2023-01-01T15:29:43.324Z,-28.5
2023-01-01T15:31:44.783Z,-28.5
2023-01-01T15:33:46.475Z,-28.4
2023-01-01T15:37:48.570Z,-28.5
2023-01-01T15:39:50.430Z,-28.4
2023-01-01T15:43:53.193Z,-28.8
2023-01-01T15:45:54.590Z,-28.7
2023-01-01T15:47:55.992Z,-28.5
2023-01-01T15:49:57.179Z,-28.6
2023-01-01T15:54:00.224Z,-28.6
2023-01-01T15:56:01.330Z,-28.6
2023-01-01T15:58:02.434Z,-28.6
2023-01-01T16:00:03.634Z,-28.6
2023-01-01T16:04:06.383Z,-28.6
2023-01-01T16:06:07.324Z,-28.5
2023-01-01T16:08:09.000Z,-28.4
2023-01-01T16:10:10.210Z,-28.5
2023-01-01T16:14:13.679Z,-28.6
2023-01-01T16:16:14.693Z,-28.4
2023-01-01T16:18:16.250Z,-28.7
2023-01-01T16:20:17.971Z,-28.4
2023-01-01T16:22:19.119Z,-28.6
2023-01-01T16:24:20.670Z,-28.5
2023-01-01T16:26:21.987Z,-28.4
2023-01-01T16:28:23.224Z,-28.5
2023-01-01T16:32:25.719Z,-28.6
2023-01-01T16:36:28.442Z,-28.4
2023-01-01T16:38:29.781Z,-28.5
2023-01-01T16:40:37.359Z,-28.7
2023-01-01T16:42:33.014Z,-28.4
2023-01-01T16:46:35.998Z,-29
2023-01-01T16:48:37.688Z,-28.5
2023-01-01T16:50:39.501Z,-28.9
2023-01-01T16:52:44.569Z,-28.6
2023-01-01T16:54:42.829Z,-28.8
2023-01-01T16:56:44.188Z,-28.9
2023-01-01T16:58:50.655Z,-28.9
2023-01-01T17:00:46.552Z,-28.8
2023-01-01T17:02:47.610Z,-28.7
2023-01-01T17:04:48.836Z,-28.9
2023-01-01T17:06:50.239Z,-28.8
2023-01-01T17:08:51.214Z,-28.8
2023-01-01T17:10:56.236Z,-28.6
2023-01-01T17:12:54.593Z,-28.8
2023-01-01T17:14:55.980Z,-28.9
2023-01-01T17:16:57.864Z,-28.7
2023-01-01T17:19:16.530Z,-29
2023-01-01T17:21:01.038Z,-29
2023-01-01T17:25:03.966Z,-28.7
2023-01-01T17:27:05.611Z,-29
2023-01-01T17:31:08.116Z,-28.7
2023-01-01T17:33:09.115Z,-28.9
2023-01-01T17:35:10.930Z,-28.5
2023-01-01T17:37:12.148Z,-28.8
2023-01-01T17:39:13.413Z,-28.6
2023-01-01T17:41:14.468Z,-28.8
2023-01-01T17:47:18.873Z,-28.7
2023-01-01T17:49:20.474Z,-28.4
2023-01-01T17:51:21.552Z,-28.8
2023-01-01T17:53:22.575Z,-28.5
2023-01-01T17:55:24.231Z,-28.4
2023-01-01T17:57:25.327Z,-28.4
2023-01-01T17:59:27.175Z,-28.5
2023-01-01T18:01:29.148Z,-28.4
2023-01-01T18:03:30.688Z,-28.6
2023-01-01T18:07:33.505Z,-28.5
2023-01-01T18:09:34.837Z,-28.5
2023-01-01T18:11:35.926Z,-28.5
2023-01-01T18:13:37.237Z,-28.6
2023-01-01T18:15:38.389Z,-28.5
2023-01-01T18:17:40.199Z,-28.6
2023-01-01T18:19:41.576Z,-28.4
2023-01-01T18:21:43.092Z,-28.3
2023-01-01T18:23:44.787Z,-28.3
2023-01-01T18:29:48.935Z,-28.3
2023-01-01T18:31:50.435Z,-28.4
2023-01-01T18:33:51.552Z,-28.1
2023-01-01T18:35:52.635Z,-28.4
2023-01-01T18:37:54.085Z,-28.5
2023-01-01T18:39:55.413Z,-28.2
2023-01-01T18:43:58.215Z,-28.5
2023-01-01T18:45:59.349Z,-28.3
2023-01-01T18:48:00.999Z,-28.6
2023-01-01T18:50:01.995Z,-28.4
2023-01-01T18:52:03.161Z,-28.5
2023-01-01T18:56:06.354Z,-28.3
2023-01-01T19:00:08.415Z,-28.2
2023-01-01T19:02:10.091Z,-28.5
2023-01-01T19:04:11.873Z,-28.5
2023-01-01T19:06:12.986Z,-28.2
2023-01-01T19:12:17.194Z,-28.3
2023-01-01T19:14:18.619Z,-28
2023-01-01T19:16:23.857Z,-28.4
2023-01-01T19:18:21.473Z,-28.5
2023-01-01T19:20:22.826Z,-28.4
2023-01-01T19:22:24.165Z,-28.3
2023-01-01T19:24:25.368Z,-28.2
2023-01-01T19:26:26.787Z,-28.4
2023-01-01T19:28:28.472Z,-28.3
2023-01-01T19:30:29.610Z,-28.5
2023-01-01T19:32:31.489Z,-28.3
2023-01-01T19:34:32.967Z,-28
2023-01-01T19:36:34.181Z,-28.4
2023-01-01T19:38:35.365Z,-28.3
2023-01-01T19:40:36.812Z,-28.2
2023-01-01T19:42:38.726Z,-28.3
2023-01-01T19:44:39.904Z,-28.1
2023-01-01T19:46:40.934Z,-28.4
2023-01-01T19:48:41.937Z,-28.4
2023-01-01T19:50:43.675Z,-28.3
2023-01-01T19:52:44.992Z,-28
2023-01-01T19:54:46.485Z,-28
2023-01-01T19:56:47.438Z,-28.3
2023-01-01T19:58:48.662Z,-28.3
2023-01-01T20:00:50.515Z,-28.4
2023-01-01T20:02:52.459Z,-28.4
2023-01-01T20:04:53.633Z,-28.2
2023-01-01T20:10:57.376Z,-28.3
2023-01-01T20:12:59.139Z,-28
2023-01-01T20:15:00.594Z,-28.4
2023-01-01T20:17:02.346Z,-28.2
2023-01-01T20:19:04.132Z,-28.3
2023-01-01T20:21:05.343Z,-28.4
2023-01-01T20:23:06.789Z,-28.5
2023-01-01T20:25:07.729Z,-28.4
2023-01-01T20:27:09.528Z,-28.1
2023-01-01T20:31:12.060Z,-28.2
2023-01-01T20:35:15.740Z,-28.4
2023-01-01T20:37:17.338Z,-28.2
2023-01-01T20:41:20.180Z,-28.2
2023-01-01T20:43:21.640Z,-28.1
2023-01-01T20:45:22.909Z,-28.5
2023-01-01T20:47:24.307Z,-28
2023-01-01T20:51:26.686Z,-28.4
2023-01-01T20:53:28.026Z,-28.2
2023-01-01T20:55:29.752Z,-28.1
2023-01-01T20:57:31.385Z,-28.2
2023-01-01T21:01:34.187Z,-28.2
2023-01-01T21:03:36.038Z,-28.2
2023-01-01T21:05:37.087Z,-28.4
2023-01-01T21:07:38.573Z,-28.2
2023-01-01T21:09:39.803Z,-28.4
2023-01-01T21:11:41.020Z,-28.2
2023-01-01T21:13:41.988Z,-28.3
2023-01-01T21:15:43.550Z,-28.4
2023-01-01T21:17:44.577Z,-28.4
2023-01-01T21:19:46.026Z,-28.2
2023-01-01T21:21:47.125Z,-28.3
2023-01-01T21:23:49.061Z,-28.4
2023-01-01T21:25:51.644Z,-28.5
2023-01-01T21:27:51.569Z,-28.3
2023-01-01T21:29:53.115Z,-28
2023-01-01T21:31:54.774Z,-28.1
2023-01-01T21:35:57.508Z,-28.2
2023-01-01T21:37:59.176Z,-27.9
2023-01-01T21:40:00.152Z,-28
2023-01-01T21:40:43.917Z,-28.1
2023-01-01T21:46:48.493Z,-28.2
2023-01-01T21:48:49.902Z,-28.4
2023-01-01T21:50:51.844Z,-28.4
2023-01-01T21:52:52.825Z,-28.3
2023-01-01T21:54:54.122Z,-28.4
2023-01-01T21:56:55.542Z,-28.3
2023-01-01T21:58:57.480Z,-28.2
2023-01-01T22:00:58.548Z,-28.2
2023-01-01T22:03:00.319Z,-28
2023-01-01T22:07:09.593Z,-28
2023-01-01T22:09:04.166Z,-28.3
2023-01-01T22:11:05.674Z,-28
2023-01-01T22:13:07.286Z,-28.2
2023-01-01T22:15:08.972Z,-28.2
2023-01-01T22:17:10.593Z,-28.1
2023-01-01T22:19:11.925Z,-28
2023-01-01T22:21:13.170Z,-28.2
2023-01-01T22:23:15.063Z,-28.4
2023-01-01T22:29:19.867Z,-28.2
2023-01-01T22:31:21.444Z,-28.4
2023-01-01T22:33:22.619Z,-28.2
2023-01-01T22:35:23.604Z,-28.4
2023-01-01T22:37:24.852Z,-28.4
2023-01-01T22:39:26.088Z,-28.1
2023-01-01T22:43:28.187Z,-28.4
2023-01-01T22:45:29.364Z,-28.1
2023-01-01T22:47:30.836Z,-28.3
2023-01-01T22:49:32.274Z,-28.5
2023-01-01T22:55:35.475Z,-28.3
2023-01-01T22:59:38.411Z,-28.3
2023-01-01T23:01:39.999Z,-28.4
2023-01-01T23:03:41.751Z,-28.3
2023-01-01T23:05:43.000Z,-28.1
2023-01-01T23:09:45.896Z,-28.4
2023-01-01T23:11:47.345Z,-28.2
2023-01-01T23:13:48.724Z,-28.2
2023-01-01T23:15:55.541Z,-28.2
2023-01-01T23:17:52.059Z,-28.2
2023-01-01T23:19:53.708Z,-28.2
2023-01-01T23:21:54.757Z,-27.9
2023-01-01T23:23:56.381Z,-28.3
2023-01-01T23:25:57.409Z,-28.1
2023-01-01T23:27:59.131Z,-28.4
2023-01-01T23:30:00.198Z,-28.3
2023-01-01T23:32:02.019Z,-28.5
2023-01-01T23:34:03.767Z,-28.3
2023-01-01T23:36:05.389Z,-28.4
2023-01-01T23:38:06.719Z,-28
2023-01-01T23:42:08.680Z,-28.4
2023-01-01T23:44:09.980Z,-28.5
2023-01-01T23:46:11.300Z,-28.4
2023-01-01T23:48:12.863Z,-28.5
2023-01-01T23:50:14.424Z,-28.2
2023-01-01T23:54:17.771Z,-28.1
2023-01-01T23:56:19.155Z,-28.4
2023-01-01T23:58:20.373Z,-28.3
